createdAt,value
2018-07-26T00:01:09.733Z,14.80
2018-07-26T00:03:39.047Z,14.80
2018-07-26T00:06:08.564Z,14.80
2018-07-26T00:08:37.717Z,14.80
2018-07-26T00:11:06.995Z,14.90
2018-07-26T00:13:36.164Z,15.00
2018-07-26T00:16:05.460Z,15.00
2018-07-26T00:18:34.967Z,15.10
2018-07-26T00:21:04.020Z,15.00
2018-07-26T00:23:33.255Z,15.10
2018-07-26T00:26:02.446Z,15.10
2018-07-26T00:28:32.257Z,15.30
2018-07-26T00:31:01.402Z,15.40
2018-07-26T00:33:30.692Z,15.40
2018-07-26T00:36:00.554Z,15.40
2018-07-26T00:38:29.868Z,15.40
2018-07-26T00:40:59.048Z,15.40
2018-07-26T00:43:28.259Z,15.40
2018-07-26T00:45:57.424Z,15.40
2018-07-26T00:48:26.722Z,15.50
2018-07-26T00:50:56.120Z,15.50
2018-07-26T00:53:25.105Z,15.50
2018-07-26T00:55:54.653Z,15.50
2018-07-26T00:58:23.856Z,15.50
2018-07-26T01:00:53.175Z,15.60
2018-07-26T01:03:22.397Z,15.50
2018-07-26T01:05:51.395Z,15.50
2018-07-26T01:08:21.154Z,15.50
2018-07-26T01:10:50.387Z,15.50
2018-07-26T01:13:19.723Z,15.60
2018-07-26T01:15:48.972Z,15.60
2018-07-26T01:18:18.287Z,15.60
2018-07-26T01:20:47.692Z,15.50
2018-07-26T01:23:16.849Z,15.50
2018-07-26T01:25:46.035Z,15.40
2018-07-26T01:28:15.180Z,15.40
2018-07-26T01:30:44.812Z,15.40
2018-07-26T01:33:14.094Z,15.40
2018-07-26T01:35:43.271Z,15.30
2018-07-26T01:38:12.439Z,15.20
2018-07-26T01:40:41.905Z,15.10
2018-07-26T01:43:21.655Z,15.20
2018-07-26T01:45:50.869Z,15.10
2018-07-26T01:48:20.276Z,15.00
2018-07-26T01:50:49.427Z,15.00
2018-07-26T01:53:18.852Z,15.00
2018-07-26T01:55:48.140Z,14.80
2018-07-26T01:58:17.275Z,14.80
2018-07-26T02:00:46.619Z,14.80
2018-07-26T02:03:16.450Z,14.70
2018-07-26T02:05:46.112Z,14.60
2018-07-26T02:08:15.178Z,14.70
2018-07-26T02:10:44.384Z,14.60
2018-07-26T02:13:14.033Z,14.50
2018-07-26T02:15:43.197Z,14.60
2018-07-26T02:18:13.071Z,14.50
2018-07-26T02:20:42.296Z,14.50
2018-07-26T02:23:11.551Z,14.50
2018-07-26T02:25:40.661Z,14.50
2018-07-26T02:28:09.965Z,14.50
2018-07-26T02:30:39.261Z,14.50
2018-07-26T02:33:08.212Z,14.50
2018-07-26T02:35:37.364Z,14.50
2018-07-26T02:38:07.147Z,14.50
2018-07-26T02:40:36.454Z,14.50
2018-07-26T02:43:05.732Z,14.50
2018-07-26T02:45:35.419Z,14.60
2018-07-26T02:48:04.771Z,14.70
2018-07-26T02:50:33.883Z,14.70
2018-07-26T02:53:02.937Z,14.50
2018-07-26T02:55:32.269Z,14.50
2018-07-26T02:58:01.572Z,14.60
2018-07-26T03:00:31.982Z,14.60
2018-07-26T03:03:01.397Z,14.70
2018-07-26T03:05:30.630Z,14.60
2018-07-26T03:10:28.832Z,14.80
2018-07-26T03:12:57.868Z,14.90
2018-07-26T03:15:27.595Z,14.80
2018-07-26T03:17:57.040Z,14.80
2018-07-26T03:20:26.060Z,14.70
2018-07-26T03:22:55.305Z,14.70
2018-07-26T03:25:24.546Z,14.80
2018-07-26T03:27:53.691Z,14.70
2018-07-26T03:30:23.029Z,14.80
2018-07-26T03:32:52.323Z,14.70
2018-07-26T03:35:21.438Z,14.70
2018-07-26T03:37:50.552Z,14.60
2018-07-26T03:40:19.735Z,14.60
2018-07-26T03:42:48.841Z,14.50
2018-07-26T03:45:18.217Z,14.50
2018-07-26T03:47:47.352Z,14.60
2018-07-26T03:50:16.557Z,14.60
2018-07-26T03:52:45.727Z,14.70
2018-07-26T03:55:14.898Z,14.80
2018-07-26T03:57:43.978Z,14.80
2018-07-26T04:00:13.169Z,14.80
2018-07-26T04:05:10.930Z,14.90
2018-07-26T04:07:40.227Z,15.10
2018-07-26T04:10:09.756Z,15.10
2018-07-26T04:12:39.105Z,15.10
2018-07-26T04:15:08.329Z,15.20
2018-07-26T04:17:37.539Z,15.20
2018-07-26T04:20:06.735Z,15.20
2018-07-26T04:22:35.866Z,15.30
2018-07-26T04:25:05.150Z,15.40
2018-07-26T04:27:34.428Z,15.40
2018-07-26T04:30:03.681Z,15.60
2018-07-26T04:32:33.049Z,15.80
2018-07-26T04:37:31.072Z,16.00
2018-07-26T04:40:00.178Z,16.10
2018-07-26T04:42:29.393Z,16.10
2018-07-26T04:44:58.640Z,16.20
2018-07-26T04:47:28.019Z,16.30
2018-07-26T04:49:57.383Z,16.30
2018-07-26T04:52:26.439Z,16.40
2018-07-26T04:54:55.720Z,16.50
2018-07-26T04:59:54.307Z,16.40
2018-07-26T05:02:23.484Z,16.50
2018-07-26T05:04:52.689Z,16.50
2018-07-26T05:07:22.170Z,16.40
2018-07-26T05:09:51.548Z,16.40
2018-07-26T05:12:21.011Z,16.60
2018-07-26T05:14:50.254Z,16.70
2018-07-26T05:17:19.647Z,16.90
2018-07-26T05:19:48.972Z,16.80
2018-07-26T05:22:18.371Z,16.90
2018-07-26T05:24:47.719Z,16.90
2018-07-26T05:27:16.829Z,17.00
2018-07-26T05:29:46.277Z,17.10
2018-07-26T05:32:15.880Z,17.30
2018-07-26T05:34:44.964Z,17.30
2018-07-26T05:37:14.258Z,17.30
2018-07-26T05:39:43.529Z,17.30
2018-07-26T05:42:13.063Z,17.30
2018-07-26T05:44:42.699Z,17.40
2018-07-26T05:47:12.036Z,17.40
2018-07-26T05:49:41.498Z,17.50
2018-07-26T05:52:10.699Z,17.50
2018-07-26T05:54:39.964Z,17.60
2018-07-26T05:57:09.071Z,17.70
2018-07-26T05:59:38.297Z,17.80
2018-07-26T06:02:07.459Z,18.00
2018-07-26T06:04:36.745Z,18.20
2018-07-26T06:07:05.826Z,18.30
2018-07-26T06:09:35.313Z,18.30
2018-07-26T06:12:04.776Z,18.40
2018-07-26T06:14:34.189Z,18.60
2018-07-26T06:17:03.498Z,19.00
2018-07-26T06:19:33.352Z,19.20
2018-07-26T06:22:02.728Z,19.40
2018-07-26T06:24:32.211Z,19.60
2018-07-26T06:27:01.385Z,19.60
2018-07-26T06:29:30.720Z,19.70
2018-07-26T06:31:59.985Z,19.80
2018-07-26T06:34:29.361Z,19.80
2018-07-26T06:36:58.634Z,19.80
2018-07-26T06:39:27.841Z,19.80
2018-07-26T06:41:57.461Z,19.90
2018-07-26T06:44:26.619Z,20.10
2018-07-26T06:46:55.847Z,20.10
2018-07-26T06:49:24.952Z,20.40
2018-07-26T06:51:54.235Z,20.60
2018-07-26T06:54:23.372Z,20.60
2018-07-26T06:56:52.644Z,20.80
2018-07-26T06:59:21.709Z,21.00
2018-07-26T07:01:51.258Z,21.10
2018-07-26T07:04:20.418Z,21.30
2018-07-26T07:06:49.550Z,21.40
2018-07-26T07:09:19.001Z,21.20
2018-07-26T07:11:48.072Z,21.30
2018-07-26T07:14:17.164Z,21.20
2018-07-26T07:16:46.348Z,21.50
2018-07-26T07:19:15.726Z,21.70
2018-07-26T07:21:44.931Z,21.80
2018-07-26T07:24:19.471Z,22.00
2018-07-26T07:26:49.423Z,22.00
2018-07-26T07:29:18.492Z,22.00
2018-07-26T07:31:47.976Z,22.30
2018-07-26T07:34:17.233Z,22.40
2018-07-26T07:36:46.487Z,22.90
2018-07-26T07:39:15.730Z,22.90
2018-07-26T07:41:44.932Z,22.90
2018-07-26T07:44:14.083Z,22.80
2018-07-26T07:46:43.413Z,22.90
2018-07-26T07:49:12.472Z,23.10
2018-07-26T07:51:41.883Z,23.30
2018-07-26T07:54:11.245Z,23.70
2018-07-26T07:56:40.346Z,24.00
2018-07-26T07:59:09.738Z,24.10
2018-07-26T08:01:39.087Z,24.20
2018-07-26T08:06:37.394Z,24.50
2018-07-26T08:09:08.635Z,24.60
2018-07-26T08:11:37.758Z,24.70
2018-07-26T08:14:07.319Z,24.50
2018-07-26T08:16:36.569Z,24.20
2018-07-26T08:19:06.515Z,24.00
2018-07-26T08:21:35.784Z,24.30
2018-07-26T08:24:05.064Z,24.40
2018-07-26T08:26:34.516Z,24.10
2018-07-26T08:29:03.783Z,23.50
2018-07-26T08:31:33.362Z,23.40
2018-07-26T08:34:02.883Z,23.40
2018-07-26T08:36:32.127Z,23.30
2018-07-26T08:39:01.473Z,23.20
2018-07-26T08:41:30.734Z,23.50
2018-07-26T08:44:00.226Z,23.80
2018-07-26T08:46:29.571Z,24.30
2018-07-26T08:48:58.684Z,24.60
2018-07-26T08:51:28.131Z,24.30
2018-07-26T08:53:57.384Z,24.50
2018-07-26T08:56:26.593Z,24.80
2018-07-26T08:58:55.757Z,24.60
2018-07-26T09:01:24.984Z,24.30
2018-07-26T09:03:54.765Z,23.80
2018-07-26T09:06:24.152Z,23.90
2018-07-26T09:08:54.085Z,23.60
2018-07-26T09:11:23.206Z,24.40
2018-07-26T09:13:52.763Z,25.10
2018-07-26T09:16:22.675Z,25.90
2018-07-26T09:18:51.765Z,26.10
2018-07-26T09:21:20.868Z,26.30
2018-07-26T09:23:50.386Z,25.90
2018-07-26T09:26:19.840Z,25.90
2018-07-26T09:28:49.072Z,25.80
2018-07-26T09:31:18.885Z,26.20
2018-07-26T09:33:48.395Z,25.10
2018-07-26T09:36:17.863Z,25.60
2018-07-26T09:38:47.125Z,26.60
2018-07-26T09:41:16.402Z,27.00
2018-07-26T09:43:45.797Z,26.80
2018-07-26T09:46:15.331Z,26.30
2018-07-26T09:48:44.568Z,26.00
2018-07-26T09:51:13.632Z,25.40
2018-07-26T09:53:43.196Z,25.60
2018-07-26T09:56:12.222Z,26.40
2018-07-26T09:58:41.804Z,25.90
2018-07-26T10:01:16.444Z,25.30
2018-07-26T10:03:45.761Z,25.10
2018-07-26T10:06:15.116Z,26.30
2018-07-26T10:08:44.475Z,25.80
2018-07-26T10:11:13.800Z,25.70
2018-07-26T10:13:43.220Z,25.60
2018-07-26T10:16:12.459Z,26.20
2018-07-26T10:18:41.601Z,26.70
2018-07-26T10:21:10.897Z,27.00
2018-07-26T10:23:40.543Z,27.50
2018-07-26T10:26:09.909Z,27.60
2018-07-26T10:28:39.316Z,28.00
2018-07-26T10:31:08.696Z,27.20
2018-07-26T10:33:38.086Z,26.60
2018-07-26T10:36:07.628Z,27.40
2018-07-26T10:38:36.828Z,27.80
2018-07-26T10:41:06.189Z,27.40
2018-07-26T10:43:35.844Z,26.60
2018-07-26T10:46:05.421Z,25.80
2018-07-26T10:48:35.131Z,25.40
2018-07-26T10:51:04.343Z,24.90
2018-07-26T10:53:33.671Z,26.10
2018-07-26T10:56:02.918Z,25.80
2018-07-26T10:58:32.220Z,25.30
2018-07-26T11:01:01.636Z,25.30
2018-07-26T11:03:30.864Z,25.80
2018-07-26T11:06:00.267Z,25.10
2018-07-26T11:08:29.753Z,25.50
2018-07-26T11:10:59.132Z,25.40
2018-07-26T11:13:28.365Z,25.50
2018-07-26T11:15:58.231Z,24.90
2018-07-26T11:18:27.408Z,24.90
2018-07-26T11:20:56.763Z,25.60
2018-07-26T11:23:25.985Z,25.60
2018-07-26T11:25:55.258Z,25.30
2018-07-26T11:28:24.433Z,25.90
2018-07-26T11:30:54.748Z,26.30
2018-07-26T11:33:24.056Z,26.20
2018-07-26T11:35:53.222Z,25.80
2018-07-26T11:38:22.549Z,26.30
2018-07-26T11:40:52.003Z,26.60
2018-07-26T11:43:21.247Z,27.20
2018-07-26T11:45:50.882Z,27.40
2018-07-26T11:48:20.218Z,27.80
2018-07-26T11:50:49.428Z,27.00
2018-07-26T11:53:18.725Z,27.00
2018-07-26T11:55:47.836Z,27.40
2018-07-26T11:58:17.304Z,27.70
2018-07-26T12:00:46.467Z,27.20
2018-07-26T12:03:15.600Z,27.10
2018-07-26T12:05:45.335Z,27.00
2018-07-26T12:08:14.596Z,26.20
2018-07-26T12:10:44.395Z,26.60
2018-07-26T12:15:42.143Z,27.30
2018-07-26T12:18:11.469Z,27.70
2018-07-26T12:20:40.869Z,27.30
2018-07-26T12:23:10.162Z,27.80
2018-07-26T12:25:39.339Z,28.30
2018-07-26T12:28:08.544Z,28.50
2018-07-26T12:30:37.844Z,27.90
2018-07-26T12:33:07.151Z,27.70
2018-07-26T12:35:36.568Z,27.10
2018-07-26T12:40:34.728Z,25.40
2018-07-26T12:43:04.071Z,24.50
2018-07-26T12:45:33.224Z,24.00
2018-07-26T12:48:02.660Z,22.80
2018-07-26T12:50:32.378Z,21.90
2018-07-26T12:53:03.470Z,20.60
2018-07-26T12:55:33.136Z,20.40
2018-07-26T12:58:02.249Z,19.60
2018-07-26T13:00:31.785Z,19.20
2018-07-26T13:03:01.185Z,19.10
2018-07-26T13:05:30.495Z,19.30
2018-07-26T13:07:59.824Z,19.40
2018-07-26T13:10:29.330Z,19.40
2018-07-26T13:12:58.492Z,19.30
2018-07-26T13:15:27.734Z,19.40
2018-07-26T13:17:57.126Z,19.40
2018-07-26T13:20:26.565Z,19.10
2018-07-26T13:22:56.065Z,19.10
2018-07-26T13:25:25.984Z,19.40
2018-07-26T13:27:55.221Z,19.60
2018-07-26T13:30:24.487Z,19.30
2018-07-26T13:32:54.134Z,19.20
2018-07-26T13:35:24.389Z,19.10
2018-07-26T13:37:53.633Z,19.00
2018-07-26T13:40:23.159Z,19.20
2018-07-26T13:42:52.691Z,19.40
2018-07-26T13:45:23.100Z,19.80
2018-07-26T13:47:52.556Z,19.90
2018-07-26T13:50:22.808Z,20.20
2018-07-26T13:52:54.032Z,20.20
2018-07-26T13:55:24.474Z,20.20
2018-07-26T13:57:55.139Z,19.80
2018-07-26T14:00:24.644Z,19.70
2018-07-26T14:02:54.050Z,19.40
2018-07-26T14:05:24.074Z,19.50
2018-07-26T14:07:53.399Z,19.80
2018-07-26T14:10:22.793Z,20.20
2018-07-26T14:12:52.366Z,20.20
2018-07-26T14:15:21.696Z,20.30
2018-07-26T14:17:52.130Z,20.20
2018-07-26T14:20:21.575Z,20.20
2018-07-26T14:22:51.340Z,20.20
2018-07-26T14:25:20.834Z,20.30
2018-07-26T14:27:50.288Z,20.30
2018-07-26T14:30:20.763Z,20.40
2018-07-26T14:32:51.553Z,20.60
2018-07-26T14:35:22.139Z,20.60
2018-07-26T14:37:51.829Z,20.60
2018-07-26T14:40:21.834Z,20.70
2018-07-26T14:42:51.323Z,21.20
2018-07-26T14:45:21.074Z,21.40
2018-07-26T14:47:51.441Z,21.40
2018-07-26T14:50:20.674Z,21.50
2018-07-26T14:52:52.914Z,21.40
2018-07-26T14:55:24.501Z,21.30
2018-07-26T14:57:54.163Z,21.50
2018-07-26T15:00:23.513Z,21.40
2018-07-26T15:02:54.204Z,21.20
2018-07-26T15:05:24.650Z,21.50
2018-07-26T15:07:55.887Z,21.80
2018-07-26T15:10:26.273Z,22.50
2018-07-26T15:12:56.324Z,22.80
2018-07-26T15:15:26.679Z,22.90
2018-07-26T15:17:56.261Z,22.70
2018-07-26T15:20:26.108Z,22.80
2018-07-26T15:22:56.456Z,23.10
2018-07-26T15:27:57.521Z,23.20
2018-07-26T15:30:27.739Z,23.30
2018-07-26T15:32:57.664Z,23.30
2018-07-26T15:35:26.733Z,23.00
2018-07-26T15:37:56.287Z,22.80
2018-07-26T15:40:25.456Z,22.90
2018-07-26T15:42:54.738Z,23.10
2018-07-26T15:45:24.037Z,23.00
2018-07-26T15:47:53.451Z,23.10
2018-07-26T15:50:22.877Z,23.20
2018-07-26T15:52:52.662Z,23.20
2018-07-26T15:55:22.712Z,22.70
2018-07-26T15:57:52.001Z,22.80
2018-07-26T16:02:49.616Z,22.90
2018-07-26T16:05:18.747Z,22.70
2018-07-26T16:07:48.006Z,22.70
2018-07-26T16:10:17.131Z,22.40
2018-07-26T16:12:46.568Z,22.50
2018-07-26T16:15:16.341Z,22.30
2018-07-26T16:17:46.274Z,22.30
2018-07-26T16:20:15.406Z,22.30
2018-07-26T16:22:44.665Z,22.00
2018-07-26T16:25:13.970Z,21.70
2018-07-26T16:27:54.059Z,21.60
2018-07-26T16:30:26.542Z,21.50
2018-07-26T16:32:57.981Z,21.50
2018-07-26T16:35:27.147Z,21.30
2018-07-26T16:37:56.428Z,21.10
2018-07-26T16:40:25.712Z,20.90
2018-07-26T16:42:54.964Z,20.90
2018-07-26T16:45:24.151Z,20.80
2018-07-26T16:47:53.356Z,20.60
2018-07-26T16:50:22.477Z,20.40
2018-07-26T16:52:51.489Z,20.50
2018-07-26T16:55:20.864Z,20.70
2018-07-26T16:57:49.999Z,20.70
2018-07-26T17:00:19.298Z,20.90
2018-07-26T17:02:48.393Z,21.10
2018-07-26T17:05:17.601Z,21.20
2018-07-26T17:07:46.772Z,21.20
2018-07-26T17:10:16.025Z,21.30
2018-07-26T17:12:45.173Z,21.40
2018-07-26T17:15:14.457Z,21.50
2018-07-26T17:17:43.897Z,21.50
2018-07-26T17:20:13.083Z,21.50
2018-07-26T17:22:43.199Z,21.60
2018-07-26T17:25:12.745Z,21.60
2018-07-26T17:27:42.563Z,21.70
2018-07-26T17:30:11.919Z,21.60
2018-07-26T17:32:41.363Z,21.70
2018-07-26T17:35:10.480Z,21.90
2018-07-26T17:37:40.076Z,22.00
2018-07-26T17:40:09.351Z,22.00
2018-07-26T17:42:39.949Z,21.90
2018-07-26T17:45:10.448Z,21.90
2018-07-26T17:47:40.029Z,21.80
2018-07-26T17:50:11.228Z,21.80
2018-07-26T17:52:41.852Z,21.80
2018-07-26T17:55:12.597Z,21.70
2018-07-26T17:57:41.921Z,21.50
2018-07-26T18:00:13.255Z,21.30
2018-07-26T18:02:42.513Z,21.30
2018-07-26T18:05:12.091Z,21.30
2018-07-26T18:07:41.873Z,21.20
2018-07-26T18:10:11.790Z,21.20
2018-07-26T18:12:41.251Z,21.10
2018-07-26T18:15:11.127Z,20.80
2018-07-26T18:17:40.308Z,20.80
2018-07-26T18:20:11.133Z,20.70
2018-07-26T18:22:40.721Z,20.50
2018-07-26T18:25:09.929Z,20.40
2018-07-26T18:27:40.233Z,20.30
2018-07-26T18:30:09.733Z,20.20
2018-07-26T18:32:39.015Z,20.10
2018-07-26T18:35:08.717Z,19.90
2018-07-26T18:37:38.451Z,19.90
2018-07-26T18:40:08.626Z,19.70
2018-07-26T18:42:38.124Z,19.50
2018-07-26T18:45:08.844Z,19.50
2018-07-26T18:47:38.574Z,19.50
2018-07-26T18:50:10.654Z,19.50
2018-07-26T18:52:39.961Z,19.60
2018-07-26T18:55:20.836Z,19.50
2018-07-26T18:57:54.605Z,19.50
2018-07-26T19:00:28.656Z,19.40
2018-07-26T19:03:05.263Z,19.40
2018-07-26T19:05:37.018Z,19.40
2018-07-26T19:08:16.307Z,19.30
2018-07-26T19:10:46.596Z,19.30
2018-07-26T19:13:22.211Z,19.30
2018-07-26T19:15:56.375Z,19.30
2018-07-26T19:18:31.619Z,19.20
2018-07-26T19:21:05.494Z,19.10
2018-07-26T19:23:40.552Z,19.20
2018-07-26T19:26:22.443Z,19.20
2018-07-26T19:28:56.644Z,19.30
2018-07-26T19:31:25.972Z,19.30
2018-07-26T19:33:56.879Z,19.30
2018-07-26T19:36:30.903Z,19.20
2018-07-26T19:39:02.905Z,19.10
2018-07-26T19:41:32.936Z,19.00
2018-07-26T19:44:02.696Z,19.00
2018-07-26T19:46:32.820Z,18.90
2018-07-26T19:49:03.060Z,18.90
2018-07-26T19:51:34.498Z,18.80
2018-07-26T19:54:04.191Z,18.80
2018-07-26T19:59:02.297Z,18.80
2018-07-26T20:01:34.450Z,18.80
2018-07-26T20:04:03.919Z,18.70
2018-07-26T20:06:33.040Z,18.70
2018-07-26T20:09:02.655Z,18.70
2018-07-26T20:11:31.969Z,18.60
2018-07-26T20:14:01.169Z,18.60
2018-07-26T20:16:31.109Z,18.50
2018-07-26T20:19:00.680Z,18.50
2018-07-26T20:21:30.098Z,18.40
2018-07-26T20:23:59.444Z,18.40
2018-07-26T20:28:57.542Z,18.30
2018-07-26T20:31:27.813Z,18.30
2018-07-26T20:33:57.068Z,18.20
2018-07-26T20:36:26.601Z,18.10
2018-07-26T20:38:56.138Z,18.00
2018-07-26T20:41:25.653Z,18.00
2018-07-26T20:43:54.809Z,17.90
2018-07-26T20:46:24.065Z,17.90
2018-07-26T20:48:52.786Z,18.00
2018-07-26T20:51:22.104Z,17.90
2018-07-26T20:53:51.144Z,17.90
2018-07-26T20:56:20.227Z,17.90
2018-07-26T20:58:50.105Z,17.80
2018-07-26T21:01:19.354Z,17.80
2018-07-26T21:03:48.704Z,17.90
2018-07-26T21:06:17.987Z,17.90
2018-07-26T21:08:47.488Z,17.80
2018-07-26T21:11:16.623Z,17.80
2018-07-26T21:13:46.563Z,17.70
2018-07-26T21:16:16.007Z,17.80
2018-07-26T21:18:45.308Z,17.70
2018-07-26T21:21:14.649Z,17.60
2018-07-26T21:23:43.854Z,17.60
2018-07-26T21:28:41.997Z,17.50
2018-07-26T21:31:12.200Z,17.40
2018-07-26T21:33:41.708Z,17.30
2018-07-26T21:36:11.061Z,17.20
2018-07-26T21:38:40.620Z,17.20
2018-07-26T21:41:10.446Z,17.20
2018-07-26T21:43:39.692Z,17.20
2018-07-26T21:46:08.828Z,17.20
2018-07-26T21:48:38.069Z,17.10
2018-07-26T21:51:07.929Z,17.10
2018-07-26T21:53:37.470Z,16.90
2018-07-26T21:56:06.920Z,16.80
2018-07-26T21:58:36.288Z,16.70
2018-07-26T22:01:05.475Z,16.70
2018-07-26T22:03:34.714Z,16.70
2018-07-26T22:06:03.824Z,16.70
2018-07-26T22:08:33.109Z,16.70
2018-07-26T22:13:31.192Z,16.60
2018-07-26T22:16:00.671Z,16.60
2018-07-26T22:18:29.901Z,16.60
2018-07-26T22:20:59.732Z,16.60
2018-07-26T22:23:28.876Z,16.60
2018-07-26T22:25:58.063Z,16.50
2018-07-26T22:28:27.256Z,16.60
2018-07-26T22:30:56.646Z,16.60
2018-07-26T22:33:25.938Z,16.60
2018-07-26T22:35:55.360Z,16.50
2018-07-26T22:38:24.516Z,16.40
2018-07-26T22:40:53.818Z,16.40
2018-07-26T22:43:22.928Z,16.30
2018-07-26T22:45:52.159Z,16.30
2018-07-26T22:48:21.342Z,16.40
2018-07-26T22:50:50.619Z,16.40
2018-07-26T22:53:20.054Z,16.30
2018-07-26T22:55:50.308Z,16.30
2018-07-26T22:58:19.945Z,16.30
2018-07-26T23:00:49.232Z,16.30
2018-07-26T23:03:18.731Z,16.40
2018-07-26T23:05:47.871Z,16.40
2018-07-26T23:08:17.119Z,16.50
2018-07-26T23:10:46.468Z,16.50
2018-07-26T23:13:15.660Z,16.40
2018-07-26T23:15:45.176Z,16.40
2018-07-26T23:18:14.351Z,16.30
2018-07-26T23:20:43.590Z,16.30
2018-07-26T23:23:13.071Z,16.30
2018-07-26T23:25:42.256Z,16.40
2018-07-26T23:28:11.464Z,16.50
2018-07-26T23:30:40.759Z,16.60
2018-07-26T23:33:10.007Z,16.60
2018-07-26T23:35:39.178Z,16.60
2018-07-26T23:40:37.479Z,16.60
2018-07-26T23:43:06.650Z,16.60
2018-07-26T23:45:35.939Z,16.60
2018-07-26T23:48:05.069Z,16.70
2018-07-26T23:50:35.428Z,16.70
2018-07-26T23:53:04.732Z,16.60
2018-07-26T23:55:33.996Z,16.70
2018-07-26T23:58:03.108Z,16.70
